Time;durP1;ratioP1;P1;durP2;ratioP2;P2;SDS_P1;SDS_P2;PMS_P1;PMS_P2;Temp;Humidity;BMP_temperature;BMP_pressure;BME280_temperature;BME280_humidity;BME280_pressure;Samples;Min_cycle;Max_cycle;Signal;HPM_P1;HPM_P2
2022/03/25 00:00:50;;;;;;;10.90;7.72;;;2.30;99.90;;;;;;7381610;19;20304;-70
2022/03/25 00:03:16;;;;;;;9.30;7.47;;;2.10;99.90;;;;;;7378974;19;20337;-69
2022/03/25 00:05:41;;;;;;;8.95;7.25;;;2.10;99.90;;;;;;7384042;19;20340;-69
2022/03/25 00:08:08;;;;;;;10.97;7.67;;;2.00;99.90;;;;;;7379466;19;20843;-69
2022/03/25 00:10:33;;;;;;;8.77;7.38;;;2.00;99.90;;;;;;7381231;19;20312;-69
2022/03/25 00:12:59;;;;;;;9.80;7.35;;;2.00;99.90;;;;;;7384316;19;20392;-69
2022/03/25 00:15:25;;;;;;;9.20;7.30;;;2.00;99.90;;;;;;7385200;19;20937;-71
2022/03/25 00:17:50;;;;;;;11.43;7.78;;;2.10;99.90;;;;;;7382532;19;20736;-71
2022/03/25 00:20:16;;;;;;;8.60;6.97;;;2.00;99.90;;;;;;7384130;19;20312;-70
2022/03/25 00:22:42;;;;;;;8.20;6.60;;;1.90;99.90;;;;;;7382281;19;20349;-71
2022/03/25 00:25:08;;;;;;;7.47;6.78;;;1.80;99.90;;;;;;7380350;19;20306;-70
2022/03/25 00:27:33;;;;;;;12.15;7.55;;;1.90;99.90;;;;;;7380768;19;20329;-71
2022/03/25 00:29:59;;;;;;;10.20;7.13;;;1.70;99.90;;;;;;7381448;19;20388;-71
2022/03/25 00:32:25;;;;;;;10.80;8.23;;;1.70;99.90;;;;;;7378705;19;20317;-70
2022/03/25 00:34:50;;;;;;;12.25;7.55;;;1.60;99.90;;;;;;7382297;19;20341;-71
2022/03/25 00:37:17;;;;;;;7.33;6.40;;;1.50;99.90;;;;;;7377594;19;20312;-70
2022/03/25 00:39:42;;;;;;;10.95;7.45;;;1.30;99.90;;;;;;7378200;19;20411;-71
2022/03/25 00:42:09;;;;;;;8.33;6.43;;;1.40;99.90;;;;;;7377165;19;20418;-70
2022/03/25 00:44:35;;;;;;;11.68;8.65;;;1.30;99.90;;;;;;7377972;19;20332;-73
2022/03/25 00:47:02;;;;;;;15.68;8.77;;;1.30;99.90;;;;;;7383581;19;20348;-73
2022/03/25 00:49:29;;;;;;;11.07;7.55;;;1.20;99.90;;;;;;7379559;19;20860;-71
2022/03/25 00:51:56;;;;;;;9.35;7.30;;;1.20;99.90;;;;;;7377628;19;20317;-71
2022/03/25 00:54:22;;;;;;;9.07;6.70;;;1.10;99.90;;;;;;7379925;19;20779;-72
2022/03/25 00:56:48;;;;;;;8.30;6.50;;;1.20;99.90;;;;;;7378389;19;20411;-71
2022/03/25 00:59:14;;;;;;;9.60;7.70;;;1.20;99.90;;;;;;7379193;19;20317;-71
2022/03/25 01:01:41;;;;;;;10.48;8.02;;;1.30;99.90;;;;;;7375628;19;20357;-71
2022/03/25 01:04:08;;;;;;;8.67;6.40;;;1.30;99.90;;;;;;7376005;19;20359;-71
2022/03/25 01:06:34;;;;;;;10.50;6.85;;;1.20;99.90;;;;;;7379739;19;20844;-71
2022/03/25 01:09:03;;;;;;;11.75;7.95;;;1.10;99.90;;;;;;7379206;19;20360;-71
2022/03/25 01:11:29;;;;;;;10.48;7.15;;;1.10;99.90;;;;;;7376675;19;20312;-70
2022/03/25 01:13:54;;;;;;;10.25;8.00;;;1.00;99.90;;;;;;7376819;19;20312;-72
2022/03/25 01:16:22;;;;;;;8.05;6.72;;;1.00;99.90;;;;;;7376867;19;20344;-72
2022/03/25 01:18:48;;;;;;;11.13;8.27;;;0.90;99.90;;;;;;7363180;19;20336;-71
2022/03/25 01:21:16;;;;;;;12.67;7.33;;;0.90;99.90;;;;;;7378529;19;20321;-71
2022/03/25 01:23:42;;;;;;;12.20;8.02;;;0.90;99.90;;;;;;7374288;19;20749;-71
2022/03/25 01:26:08;;;;;;;13.70;8.02;;;0.90;99.90;;;;;;7377716;19;20383;-71
2022/03/25 01:28:34;;;;;;;9.95;6.93;;;0.90;99.90;;;;;;7375564;19;20308;-71
2022/03/25 01:31:03;;;;;;;11.23;7.47;;;0.90;99.90;;;;;;7378200;19;20344;-71
2022/03/25 01:33:33;;;;;;;10.70;7.50;;;0.90;99.90;;;;;;7373912;19;20351;-71
2022/03/25 01:36:00;;;;;;;9.77;7.68;;;0.90;99.90;;;;;;7377838;19;20377;-71
2022/03/25 01:38:26;;;;;;;11.77;8.30;;;0.90;99.90;;;;;;7375948;19;20420;-71
2022/03/25 01:40:53;;;;;;;9.85;7.72;;;0.80;99.90;;;;;;7379203;19;20749;-71
2022/03/25 01:43:19;;;;;;;10.68;7.15;;;0.70;99.90;;;;;;7375818;19;20412;-71
2022/03/25 01:45:44;;;;;;;9.32;7.35;;;0.70;99.90;;;;;;7376430;19;20421;-71
2022/03/25 01:48:11;;;;;;;9.40;6.83;;;0.60;99.90;;;;;;7376081;19;20317;-71
2022/03/25 01:50:38;;;;;;;12.88;6.93;;;0.60;99.90;;;;;;7384457;19;20368;-72
2022/03/25 01:53:08;;;;;;;11.77;8.67;;;0.60;99.90;;;;;;7384720;19;20375;-71
2022/03/25 01:55:36;;;;;;;11.32;8.30;;;0.60;99.90;;;;;;7382618;19;20321;-71
2022/03/25 01:58:05;;;;;;;10.30;7.50;;;0.40;99.90;;;;;;7383105;19;20668;-71
2022/03/25 02:00:30;;;;;;;8.02;7.00;;;0.30;99.90;;;;;;7388321;19;20305;-70
2022/03/25 02:02:56;;;;;;;8.57;6.70;;;0.20;99.90;;;;;;7384122;19;20329;-71
2022/03/25 02:05:22;;;;;;;13.45;7.13;;;0.20;99.90;;;;;;7382994;19;20312;-71
2022/03/25 02:07:48;;;;;;;12.63;7.38;;;0.30;99.90;;;;;;7381139;19;20788;-71
2022/03/25 02:10:17;;;;;;;10.77;7.50;;;0.30;99.90;;;;;;7381596;19;20666;-71
2022/03/25 02:12:43;;;;;;;10.47;7.10;;;0.20;99.90;;;;;;7379968;19;20356;-70
2022/03/25 02:15:09;;;;;;;11.23;7.50;;;0.20;99.90;;;;;;7381168;19;20367;-71
2022/03/25 02:17:35;;;;;;;11.52;7.18;;;0.20;99.90;;;;;;7379810;19;20343;-71
2022/03/25 02:20:07;;;;;;;9.43;6.70;;;0.20;99.90;;;;;;7383114;19;20321;-72
2022/03/25 02:22:42;;;;;;;9.02;6.40;;;0.20;99.90;;;;;;7379730;19;20994;-71
2022/03/25 02:25:11;;;;;;;7.43;5.85;;;0.20;99.90;;;;;;7381051;19;20317;-71
2022/03/25 02:27:39;;;;;;;8.40;5.60;;;0.20;99.90;;;;;;7377612;19;20385;-71
2022/03/25 02:30:07;;;;;;;7.13;6.13;;;0.20;99.90;;;;;;7380911;19;20841;-71
2022/03/25 02:32:33;;;;;;;9.55;6.88;;;0.20;99.90;;;;;;7380567;19;20309;-70
2022/03/25 02:34:59;;;;;;;9.13;7.03;;;0.20;99.90;;;;;;7380775;19;20324;-70
2022/03/25 02:37:25;;;;;;;8.15;6.32;;;0.10;99.90;;;;;;7379464;19;20363;-70
2022/03/25 02:39:53;;;;;;;9.15;7.35;;;0.10;99.90;;;;;;7381711;19;20670;-71
2022/03/25 02:42:19;;;;;;;10.98;7.63;;;0.10;99.90;;;;;;7379701;19;20351;-70
2022/03/25 02:44:44;;;;;;;11.25;6.75;;;0.00;99.90;;;;;;7379451;19;20344;-71
2022/03/25 02:47:11;;;;;;;8.07;6.73;;;0.00;99.90;;;;;;7382519;19;20653;-71
2022/03/25 02:49:36;;;;;;;8.43;6.70;;;0.10;99.90;;;;;;7378300;19;20308;-72
2022/03/25 02:52:02;;;;;;;9.43;6.30;;;0.00;99.90;;;;;;7383885;19;20323;-71
2022/03/25 02:54:28;;;;;;;9.27;6.83;;;0.00;99.90;;;;;;7387683;19;20818;-71
2022/03/25 02:56:53;;;;;;;8.68;7.07;;;0.00;99.90;;;;;;7380050;19;20332;-71
2022/03/25 02:59:19;;;;;;;9.27;7.07;;;-0.10;99.90;;;;;;7381926;19;20336;-70
2022/03/25 03:01:45;;;;;;;7.70;6.40;;;-0.20;99.90;;;;;;7378377;19;20443;-71
2022/03/25 03:04:11;;;;;;;7.10;5.93;;;-0.20;99.90;;;;;;7378504;19;20305;-70
2022/03/25 03:06:36;;;;;;;8.23;6.30;;;-0.10;99.90;;;;;;7381595;19;20356;-70
2022/03/25 03:09:02;;;;;;;8.63;6.55;;;-0.20;99.90;;;;;;7380141;19;20362;-71
2022/03/25 03:11:28;;;;;;;9.20;6.40;;;-0.20;99.90;;;;;;7380296;19;20329;-71
2022/03/25 03:13:54;;;;;;;7.83;6.23;;;-0.20;99.90;;;;;;7377558;19;20415;-71
2022/03/25 03:16:19;;;;;;;9.65;6.22;;;-0.20;99.90;;;;;;7380552;19;20350;-71
2022/03/25 03:18:45;;;;;;;8.97;6.70;;;-0.20;99.90;;;;;;7378590;19;20296;-70
2022/03/25 03:21:11;;;;;;;10.47;6.13;;;-0.20;99.90;;;;;;7379958;19;21059;-70
2022/03/25 03:23:37;;;;;;;6.28;5.65;;;-0.20;99.90;;;;;;7377360;19;20312;-70
2022/03/25 03:26:03;;;;;;;9.48;6.60;;;-0.20;99.90;;;;;;7379854;19;20355;-70
2022/03/25 03:28:28;;;;;;;8.32;6.30;;;-0.20;99.90;;;;;;7378331;19;20303;-71
2022/03/25 03:30:55;;;;;;;8.10;6.05;;;-0.20;99.90;;;;;;7379964;19;20676;-70
2022/03/25 03:33:21;;;;;;;10.48;6.55;;;-0.30;99.90;;;;;;7379088;19;20344;-71
2022/03/25 03:35:47;;;;;;;8.40;6.25;;;-0.30;99.90;;;;;;7379881;19;20345;-70
2022/03/25 03:38:13;;;;;;;9.43;7.60;;;-0.40;99.90;;;;;;7380120;19;20405;-71
2022/03/25 03:40:39;;;;;;;6.97;6.10;;;-0.40;99.90;;;;;;7381069;19;20341;-71
2022/03/25 03:43:05;;;;;;;7.05;5.75;;;-0.50;99.90;;;;;;7382372;19;20365;-71
2022/03/25 03:45:32;;;;;;;9.73;6.83;;;-0.50;99.90;;;;;;7386814;19;20404;-71
2022/03/25 03:47:58;;;;;;;7.97;6.15;;;-0.50;99.90;;;;;;7380252;19;20364;-71
2022/03/25 03:50:24;;;;;;;6.80;5.82;;;-0.60;99.90;;;;;;7360877;19;20839;-71
2022/03/25 03:52:49;;;;;;;8.40;6.20;;;-0.60;99.90;;;;;;7379076;19;20359;-71
2022/03/25 03:55:15;;;;;;;7.70;5.83;;;-0.60;99.90;;;;;;7378244;19;20308;-71
2022/03/25 03:57:59;;;;;;;7.93;5.97;;;-0.60;99.90;;;;;;7381002;19;20925;-70
2022/03/25 04:00:25;;;;;;;10.23;7.15;;;-0.60;99.90;;;;;;7380811;19;20321;-70
2022/03/25 04:02:51;;;;;;;8.73;6.15;;;-0.70;99.90;;;;;;7377387;19;20320;-70
2022/03/25 04:05:16;;;;;;;8.57;6.87;;;-0.70;99.90;;;;;;7379925;19;20309;-70
2022/03/25 04:07:46;;;;;;;11.03;6.80;;;-0.80;99.90;;;;;;7361987;19;20340;-70
2022/03/25 04:10:12;;;;;;;10.55;6.07;;;-0.80;99.90;;;;;;7377797;19;20300;-70
2022/03/25 04:12:38;;;;;;;10.30;6.80;;;-0.90;99.90;;;;;;7377718;19;20347;-70
2022/03/25 04:15:04;;;;;;;9.55;6.25;;;-0.90;99.90;;;;;;7358627;19;20443;-70
2022/03/25 04:17:30;;;;;;;9.52;6.43;;;-0.90;99.90;;;;;;7374443;19;20324;-70
2022/03/25 04:19:56;;;;;;;6.68;5.75;;;-0.90;99.90;;;;;;7377122;19;20975;-70
2022/03/25 04:22:21;;;;;;;7.95;6.63;;;-0.90;99.90;;;;;;7376792;19;20366;-70
2022/03/25 04:24:47;;;;;;;7.30;5.77;;;-0.80;99.90;;;;;;7377104;19;20338;-70
2022/03/25 04:27:13;;;;;;;8.30;6.27;;;-0.90;99.90;;;;;;7379399;19;20769;-71
2022/03/25 04:29:38;;;;;;;7.80;5.97;;;-0.90;99.90;;;;;;7379330;19;20315;-70
2022/03/25 04:32:04;;;;;;;11.37;6.57;;;-0.90;99.90;;;;;;7375229;19;20326;-70
2022/03/25 04:34:30;;;;;;;6.40;5.70;;;-0.90;99.90;;;;;;7378131;19;20309;-70
2022/03/25 04:36:55;;;;;;;9.03;5.80;;;-1.00;99.90;;;;;;7378093;19;20459;-71
2022/03/25 04:39:21;;;;;;;7.22;5.50;;;-1.00;99.90;;;;;;7378010;19;20998;-70
2022/03/25 04:41:47;;;;;;;7.60;6.03;;;-1.00;99.90;;;;;;7378535;19;20357;-70
2022/03/25 04:44:12;;;;;;;7.30;5.82;;;-1.00;99.90;;;;;;7375987;19;20342;-70
2022/03/25 04:46:39;;;;;;;7.73;5.60;;;-1.10;99.90;;;;;;7378403;19;20337;-69
2022/03/25 04:49:08;;;;;;;7.95;6.07;;;-1.10;99.90;;;;;;7376621;19;20360;-71
2022/03/25 04:51:34;;;;;;;7.50;6.10;;;-1.10;99.90;;;;;;7377782;19;20320;-69
2022/03/25 04:54:00;;;;;;;6.63;5.73;;;-1.10;99.90;;;;;;7352600;19;20345;-70
2022/03/25 04:56:25;;;;;;;8.80;5.67;;;-1.20;99.90;;;;;;7377870;19;20328;-69
2022/03/25 04:58:51;;;;;;;10.50;6.55;;;-1.20;99.90;;;;;;7376298;19;20910;-70
2022/03/25 05:01:17;;;;;;;7.53;5.77;;;-1.20;99.90;;;;;;7377074;19;20316;-70
2022/03/25 05:03:42;;;;;;;9.13;6.53;;;-1.20;99.90;;;;;;7374496;19;20321;-70
2022/03/25 05:06:08;;;;;;;8.65;5.95;;;-1.20;99.90;;;;;;7378325;19;20324;-70
2022/03/25 05:08:33;;;;;;;9.60;5.97;;;-1.20;99.90;;;;;;7374747;19;20874;-70
2022/03/25 05:10:59;;;;;;;7.78;6.00;;;-1.10;99.90;;;;;;7376839;19;20356;-70
2022/03/25 05:13:25;;;;;;;8.88;7.45;;;-1.10;99.90;;;;;;7376327;19;20324;-70
2022/03/25 05:15:51;;;;;;;9.40;6.07;;;-1.20;99.90;;;;;;7376024;19;20303;-70
2022/03/25 05:18:17;;;;;;;9.80;6.43;;;-1.30;99.90;;;;;;7375482;19;20344;-70
2022/03/25 05:20:42;;;;;;;9.43;7.07;;;-1.20;99.90;;;;;;7373978;19;20420;-70
2022/03/25 05:23:08;;;;;;;11.25;6.95;;;-1.30;99.90;;;;;;7374826;19;20428;-70
2022/03/25 05:25:34;;;;;;;9.07;6.18;;;-1.30;99.90;;;;;;7376475;19;20345;-70
2022/03/25 05:28:00;;;;;;;10.35;7.80;;;-1.30;99.90;;;;;;7381965;19;20319;-70
2022/03/25 05:30:28;;;;;;;9.45;7.07;;;-1.30;99.90;;;;;;7381627;19;20308;-70
2022/03/25 05:32:54;;;;;;;6.20;5.60;;;-1.40;99.90;;;;;;7385110;19;20315;-70
2022/03/25 05:35:21;;;;;;;5.95;5.28;;;-1.40;99.90;;;;;;7384113;19;20323;-70
2022/03/25 05:37:46;;;;;;;9.27;6.65;;;-1.30;99.90;;;;;;7378832;19;20408;-70
2022/03/25 05:40:12;;;;;;;8.90;6.60;;;-1.20;99.90;;;;;;7381849;19;20417;-70
2022/03/25 05:42:38;;;;;;;8.77;6.13;;;-1.20;99.90;;;;;;7382860;19;20333;-70
2022/03/25 05:45:04;;;;;;;9.40;7.07;;;-1.20;99.90;;;;;;7378896;19;20879;-70
2022/03/25 05:47:30;;;;;;;8.47;6.50;;;-1.10;99.90;;;;;;7383442;19;20325;-70
2022/03/25 05:49:57;;;;;;;7.80;5.87;;;-1.00;99.90;;;;;;7384493;19;20324;-73
2022/03/25 05:52:23;;;;;;;7.07;5.75;;;-1.00;99.90;;;;;;7377915;19;20746;-71
2022/03/25 05:54:49;;;;;;;10.30;7.55;;;-0.90;99.90;;;;;;7384671;19;20321;-70
2022/03/25 05:57:15;;;;;;;13.60;7.82;;;-0.80;99.90;;;;;;7383099;19;20883;-70
2022/03/25 05:59:40;;;;;;;9.63;7.72;;;-0.80;99.90;;;;;;7382837;19;20329;-70
2022/03/25 06:02:08;;;;;;;8.37;6.90;;;-0.70;99.90;;;;;;7379316;19;20311;-70
2022/03/25 06:04:34;;;;;;;10.98;7.68;;;-0.60;99.90;;;;;;7380434;19;20313;-69
2022/03/25 06:07:00;;;;;;;11.80;8.23;;;-0.50;99.90;;;;;;7376810;19;20353;-70
2022/03/25 06:09:26;;;;;;;13.75;7.50;;;-0.40;99.90;;;;;;7379155;19;20347;-70
2022/03/25 06:11:51;;;;;;;14.13;8.48;;;-0.40;99.90;;;;;;7379540;19;20872;-70
2022/03/25 06:14:17;;;;;;;8.40;6.60;;;-0.30;99.90;;;;;;7381776;19;20860;-69
2022/03/25 06:16:43;;;;;;;11.67;7.47;;;-0.30;99.90;;;;;;7357726;19;20813;-70
2022/03/25 06:19:09;;;;;;;11.87;8.50;;;-0.20;99.90;;;;;;7379843;19;20777;-70
2022/03/25 06:21:34;;;;;;;11.27;8.47;;;-0.10;99.90;;;;;;7380396;19;20308;-70
2022/03/25 06:24:00;;;;;;;13.55;8.63;;;0.00;99.90;;;;;;7380465;19;20321;-70
2022/03/25 06:26:26;;;;;;;12.10;9.65;;;0.00;99.90;;;;;;7380590;19;20396;-70
2022/03/25 06:28:52;;;;;;;12.93;9.93;;;0.10;99.90;;;;;;7378062;19;20325;-71
2022/03/25 06:31:18;;;;;;;10.23;7.82;;;0.10;99.90;;;;;;7380672;19;20325;-70
2022/03/25 06:33:43;;;;;;;12.30;9.27;;;0.30;99.90;;;;;;7380350;19;20877;-71
2022/03/25 06:36:13;;;;;;;16.92;10.15;;;0.40;99.90;;;;;;7382115;19;20313;-70
2022/03/25 06:38:39;;;;;;;12.25;10.05;;;0.50;99.90;;;;;;7376443;19;20388;-70
2022/03/25 06:41:05;;;;;;;14.25;10.30;;;0.60;99.90;;;;;;7381921;19;20312;-70
2022/03/25 06:43:31;;;;;;;14.27;9.52;;;0.70;99.90;;;;;;7377065;19;20655;-71
2022/03/25 06:45:56;;;;;;;14.10;10.23;;;0.70;99.90;;;;;;7378844;19;20309;-71
2022/03/25 06:48:22;;;;;;;12.88;9.63;;;0.80;99.90;;;;;;7379657;19;20325;-72
2022/03/25 06:50:48;;;;;;;13.20;9.07;;;1.00;99.90;;;;;;7378018;19;20345;-70
2022/03/25 06:53:14;;;;;;;12.38;9.57;;;1.10;99.90;;;;;;7379079;19;20337;-70
2022/03/25 06:55:40;;;;;;;12.67;9.37;;;1.30;99.90;;;;;;7381805;19;20320;-70
2022/03/25 06:58:06;;;;;;;14.00;10.07;;;1.40;99.90;;;;;;7379200;19;20675;-70
2022/03/25 07:00:32;;;;;;;16.80;10.48;;;1.50;99.90;;;;;;7377803;19;20293;-70
2022/03/25 07:02:58;;;;;;;12.23;9.85;;;1.70;99.90;;;;;;7378834;19;20309;-70
2022/03/25 07:05:24;;;;;;;15.77;11.15;;;1.80;99.90;;;;;;7380083;19;20741;-70
2022/03/25 07:07:50;;;;;;;13.43;10.63;;;1.90;99.90;;;;;;7379573;19;20348;-70
2022/03/25 07:10:16;;;;;;;13.57;10.23;;;2.10;99.90;;;;;;7382516;19;20979;-70
2022/03/25 07:12:44;;;;;;;12.75;10.10;;;2.20;99.90;;;;;;7378110;19;20312;-70
2022/03/25 07:15:09;;;;;;;12.88;10.77;;;2.30;99.90;;;;;;7378294;19;20328;-70
2022/03/25 07:17:37;;;;;;;14.77;11.15;;;2.50;99.90;;;;;;7365629;19;20336;-70
2022/03/25 07:20:04;;;;;;;13.10;9.90;;;2.70;99.90;;;;;;7381331;19;20304;-71
2022/03/25 07:22:30;;;;;;;18.33;11.38;;;2.90;99.90;;;;;;7381147;19;20316;-70
2022/03/25 07:24:55;;;;;;;14.43;10.67;;;3.20;99.90;;;;;;7380744;19;20335;-70
2022/03/25 07:27:21;;;;;;;16.15;11.55;;;3.40;99.90;;;;;;7376709;19;20327;-71
2022/03/25 07:29:47;;;;;;;12.50;9.75;;;3.50;99.90;;;;;;7380145;19;20788;-70
2022/03/25 07:32:14;;;;;;;11.43;9.00;;;3.70;99.90;;;;;;7376622;19;20313;-70
2022/03/25 07:34:39;;;;;;;15.43;11.52;;;3.90;99.90;;;;;;7379091;19;20320;-71
2022/03/25 07:37:05;;;;;;;11.48;9.60;;;4.10;99.90;;;;;;7378596;19;20344;-70
2022/03/25 07:39:31;;;;;;;20.52;11.48;;;4.30;99.90;;;;;;7376445;19;20904;-70
2022/03/25 07:41:57;;;;;;;14.88;10.75;;;4.50;99.90;;;;;;7374862;19;20320;-70
2022/03/25 07:44:23;;;;;;;12.37;9.17;;;4.60;99.90;;;;;;7378967;19;21513;-70
2022/03/25 07:46:48;;;;;;;12.52;9.48;;;4.80;99.90;;;;;;7377514;19;20407;-70
2022/03/25 07:49:14;;;;;;;11.85;9.27;;;5.00;99.90;;;;;;7378319;19;20304;-70
2022/03/25 07:51:39;;;;;;;17.57;11.87;;;5.20;99.90;;;;;;7379583;19;20868;-70
2022/03/25 07:54:06;;;;;;;16.38;12.13;;;5.40;99.90;;;;;;7378177;19;20316;-71
2022/03/25 07:56:32;;;;;;;17.65;12.30;;;5.50;99.90;;;;;;7380661;19;20318;-70
2022/03/25 07:58:59;;;;;;;15.93;12.13;;;5.70;99.90;;;;;;7380656;19;20885;-70
2022/03/25 08:01:25;;;;;;;20.17;11.98;;;5.90;99.90;;;;;;7378243;19;20959;-70
2022/03/25 08:03:51;;;;;;;15.35;11.68;;;6.00;99.90;;;;;;7376343;19;20365;-71
2022/03/25 08:06:16;;;;;;;20.58;13.43;;;6.20;99.90;;;;;;7378032;19;21094;-71
2022/03/25 08:08:42;;;;;;;15.73;11.80;;;6.40;99.90;;;;;;7379512;19;20959;-70
2022/03/25 08:11:08;;;;;;;17.58;12.23;;;6.50;99.90;;;;;;7382528;19;20873;-71
2022/03/25 08:13:34;;;;;;;15.60;11.80;;;6.70;99.90;;;;;;7378198;19;20415;-71
2022/03/25 08:16:00;;;;;;;18.10;12.40;;;6.80;99.90;;;;;;7379561;19;20316;-70
2022/03/25 08:18:26;;;;;;;19.70;13.27;;;7.00;99.90;;;;;;7376620;19;20324;-71
2022/03/25 08:20:53;;;;;;;16.90;12.27;;;7.10;99.90;;;;;;7378888;19;20351;-71
2022/03/25 08:28:50;;;;;;;12.32;9.98;;;7.70;99.90;;;;;;7376318;19;20416;-71
2022/03/25 08:31:15;;;;;;;16.70;12.88;;;7.80;99.90;;;;;;7377950;19;20739;-73
2022/03/25 08:33:41;;;;;;;20.42;12.48;;;8.10;99.90;;;;;;7377014;19;20335;-72
2022/03/25 08:36:07;;;;;;;18.08;11.55;;;8.30;99.90;;;;;;7378474;19;20304;-72
2022/03/25 08:38:33;;;;;;;16.95;11.85;;;8.50;99.90;;;;;;7378996;19;20410;-71
2022/03/25 08:40:58;;;;;;;19.30;12.27;;;8.60;99.90;;;;;;7378376;19;20313;-71
2022/03/25 08:43:24;;;;;;;20.80;12.73;;;8.80;99.90;;;;;;7376818;19;20692;-71
2022/03/25 08:45:49;;;;;;;17.47;12.17;;;8.90;99.90;;;;;;7380799;19;20323;-70
2022/03/25 08:48:15;;;;;;;17.65;11.98;;;9.10;99.90;;;;;;7374409;19;20368;-70
2022/03/25 08:50:41;;;;;;;22.33;14.83;;;9.30;99.90;;;;;;7379496;19;20309;-71
2022/03/25 08:53:07;;;;;;;18.80;12.87;;;9.40;99.90;;;;;;7375991;19;20336;-70
2022/03/25 08:55:32;;;;;;;18.58;12.05;;;9.60;99.90;;;;;;7377324;19;20305;-70
2022/03/25 08:57:58;;;;;;;21.67;14.10;;;9.70;99.90;;;;;;7377622;19;20324;-71
2022/03/25 09:00:24;;;;;;;21.63;14.90;;;9.90;99.90;;;;;;7384029;19;20321;-71
2022/03/25 09:02:49;;;;;;;17.42;12.73;;;10.10;99.90;;;;;;7383863;19;20300;-71
2022/03/25 09:05:16;;;;;;;19.23;13.73;;;10.20;99.90;;;;;;7387642;19;20308;-73
2022/03/25 09:07:42;;;;;;;19.02;14.00;;;10.30;99.90;;;;;;7381377;19;20568;-71
2022/03/25 09:10:08;;;;;;;22.10;14.17;;;10.40;99.90;;;;;;7384172;19;21168;-72
2022/03/25 09:12:34;;;;;;;17.85;12.00;;;10.60;99.90;;;;;;7390711;19;20754;-71
2022/03/25 09:15:00;;;;;;;19.88;12.57;;;10.70;99.90;;;;;;7386576;19;20698;-70
2022/03/25 09:17:26;;;;;;;21.45;14.10;;;10.90;99.90;;;;;;7382792;19;20304;-70
2022/03/25 09:19:52;;;;;;;20.20;14.23;;;11.10;99.90;;;;;;7384909;19;20349;-73
2022/03/25 09:22:18;;;;;;;19.00;13.65;;;11.20;99.90;;;;;;7382048;19;20312;-72
2022/03/25 09:24:43;;;;;;;21.75;14.85;;;11.30;99.90;;;;;;7385615;19;21199;-71
2022/03/25 09:27:09;;;;;;;22.03;13.60;;;11.50;99.90;;;;;;7380460;19;20705;-70
2022/03/25 09:29:34;;;;;;;21.58;14.23;;;11.50;99.90;;;;;;7381488;19;20316;-71
2022/03/25 09:32:00;;;;;;;19.37;13.73;;;11.70;99.90;;;;;;7380303;19;20361;-71
2022/03/25 09:37:10;;;;;;;20.85;14.10;;;12.00;99.90;;;;;;7382249;19;20411;-72
2022/03/25 09:39:36;;;;;;;18.23;13.85;;;12.20;99.90;;;;;;7381660;19;20407;-71
2022/03/25 09:42:02;;;;;;;19.23;13.43;;;12.40;99.90;;;;;;7382322;19;20353;-72
2022/03/25 09:44:28;;;;;;;22.15;14.48;;;12.50;99.90;;;;;;7381779;19;20323;-71
2022/03/25 09:46:54;;;;;;;15.97;13.33;;;12.70;99.90;;;;;;7383239;19;20341;-72
2022/03/25 09:49:20;;;;;;;22.33;14.27;;;12.70;99.90;;;;;;7382399;19;20341;-72
2022/03/25 09:51:45;;;;;;;26.33;17.63;;;12.90;99.90;;;;;;7381018;19;20388;-72
2022/03/25 09:54:14;;;;;;;24.20;17.03;;;13.20;99.90;;;;;;7383144;19;20317;-72
2022/03/25 09:56:40;;;;;;;28.55;17.33;;;13.20;99.90;;;;;;7381779;19;20330;-71
2022/03/25 09:59:07;;;;;;;26.15;17.50;;;13.30;99.90;;;;;;7381522;19;20880;-71
2022/03/25 10:01:34;;;;;;;23.75;16.02;;;13.30;99.90;;;;;;7380195;19;20327;-71
2022/03/25 10:03:59;;;;;;;25.67;17.75;;;13.50;99.90;;;;;;7381403;19;20392;-71
2022/03/25 10:06:25;;;;;;;26.70;16.95;;;13.80;99.90;;;;;;7378271;19;20365;-71
2022/03/25 10:08:58;;;;;;;24.87;18.10;;;14.00;99.90;;;;;;7379327;19;20315;-72
2022/03/25 10:11:30;;;;;;;27.45;19.30;;;14.20;99.90;;;;;;7380873;19;20331;-72
2022/03/25 10:14:23;;;;;;;26.00;19.00;;;14.20;99.90;;;;;;7379657;19;20408;-71
2022/03/25 10:16:53;;;;;;;25.63;18.47;;;14.40;99.90;;;;;;7280373;19;2004830;-72
2022/03/25 10:19:19;;;;;;;25.07;17.93;;;14.50;99.60;;;;;;7381267;19;20309;-72
2022/03/25 10:21:57;;;;;;;26.20;17.60;;;14.50;99.90;;;;;;7379005;19;20392;-72
2022/03/25 10:24:40;;;;;;;27.95;19.25;;;14.70;99.90;;;;;;7381329;19;20403;-72
2022/03/25 10:27:07;;;;;;;25.00;17.17;;;14.60;98.50;;;;;;7379240;19;20308;-72
2022/03/25 10:29:35;;;;;;;27.63;18.65;;;15.00;99.80;;;;;;7379425;19;20313;-73
2022/03/25 10:32:08;;;;;;;24.17;17.73;;;15.10;97.90;;;;;;7377882;19;20335;-72
2022/03/25 10:34:38;;;;;;;21.95;15.73;;;15.50;98.80;;;;;;7278392;19;2004362;-73
2022/03/25 10:37:09;;;;;;;21.50;15.45;;;15.80;97.70;;;;;;7382189;19;20355;-72
2022/03/25 10:39:35;;;;;;;23.70;16.92;;;15.50;96.00;;;;;;7383096;19;20417;-72
2022/03/25 10:42:05;;;;;;;20.63;14.97;;;15.20;95.50;;;;;;7380492;19;20607;-73
2022/03/25 10:44:38;;;;;;;22.70;17.05;;;15.50;96.60;;;;;;7383227;19;20304;-73
2022/03/25 10:47:16;;;;;;;23.97;15.97;;;15.10;95.20;;;;;;7375634;19;20347;-71
2022/03/25 10:49:46;;;;;;;20.33;16.33;;;15.40;96.70;;;;;;7380504;19;20321;-71
2022/03/25 10:52:32;;;;;;;23.88;16.02;;;15.20;95.30;;;;;;7377883;19;20793;-72
2022/03/25 10:55:20;;;;;;;26.13;15.50;;;15.60;95.60;;;;;;7378157;19;20324;-72
2022/03/25 10:57:50;;;;;;;21.05;14.55;;;16.30;95.80;;;;;;7276794;19;2004251;-72
2022/03/25 11:00:16;;;;;;;24.02;15.65;;;16.70;94.00;;;;;;7376754;19;20335;-72
2022/03/25 11:02:43;;;;;;;19.55;14.18;;;16.30;93.70;;;;;;7379749;19;20313;-73
2022/03/25 11:05:09;;;;;;;22.55;13.25;;;16.80;94.20;;;;;;7379185;19;20324;-74
2022/03/25 11:07:40;;;;;;;16.77;10.10;;;16.90;92.90;;;;;;7377343;19;20328;-71
2022/03/25 11:10:05;;;;;;;13.23;9.65;;;17.00;91.00;;;;;;7375876;19;20361;-72
2022/03/25 11:12:31;;;;;;;20.17;12.03;;;17.20;91.50;;;;;;7377802;19;20882;-73
2022/03/25 11:14:59;;;;;;;19.67;10.73;;;16.70;89.20;;;;;;7379273;19;20316;-72
2022/03/25 11:17:27;;;;;;;13.13;10.88;;;17.30;91.00;;;;;;7376372;19;20348;-72
2022/03/25 11:19:53;;;;;;;19.08;11.35;;;17.20;86.10;;;;;;7381327;19;20357;-72
2022/03/25 11:22:19;;;;;;;13.52;9.82;;;17.60;87.80;;;;;;7379512;19;21063;-72
2022/03/25 11:24:53;;;;;;;15.90;11.07;;;18.30;90.20;;;;;;7379738;19;20370;-71
2022/03/25 11:27:25;;;;;;;14.30;10.25;;;18.10;83.30;;;;;;7376703;19;20316;-72
2022/03/25 11:29:53;;;;;;;19.43;10.93;;;18.30;87.80;;;;;;7381209;19;20344;-72
2022/03/25 11:32:19;;;;;;;17.88;10.80;;;18.90;85.80;;;;;;7377376;19;20375;-72
2022/03/25 11:34:47;;;;;;;18.17;10.05;;;18.30;79.30;;;;;;7377830;19;20346;-72
2022/03/25 11:37:19;;;;;;;12.30;9.43;;;18.80;82.00;;;;;;7378606;19;20320;-72
2022/03/25 11:39:44;;;;;;;10.57;7.88;;;18.60;80.60;;;;;;7379453;19;20376;-71
2022/03/25 11:42:49;;;;;;;12.03;9.03;;;18.90;83.30;;;;;;7376005;19;20427;-71
2022/03/25 11:45:21;;;;;;;13.57;10.10;;;19.80;80.60;;;;;;7271706;19;2004748;-72
2022/03/25 11:48:04;;;;;;;14.60;10.63;;;19.70;75.80;;;;;;7373751;19;21783;-71
2022/03/25 11:50:36;;;;;;;16.48;11.65;;;18.80;77.10;;;;;;7378659;19;20363;-71
2022/03/25 11:53:10;;;;;;;14.90;11.07;;;18.50;78.40;;;;;;7373908;19;20348;-72
2022/03/25 11:56:07;;;;;;;16.58;10.57;;;18.60;77.40;;;;;;7378462;19;20316;-72
2022/03/25 11:58:56;;;;;;;14.02;10.13;;;19.30;78.70;;;;;;7374218;19;20305;-72
2022/03/25 12:01:22;;;;;;;17.27;10.43;;;19.10;73.70;;;;;;7273043;19;2004438;-72
2022/03/25 12:03:58;;;;;;;15.35;10.98;;;19.60;75.00;;;;;;7375294;19;20344;-72
2022/03/25 12:06:30;;;;;;;16.83;11.43;;;19.70;74.80;;;;;;7374723;19;20994;-72
2022/03/25 12:09:26;;;;;;;15.20;11.60;;;19.50;75.10;;;;;;7374783;19;20428;-72
2022/03/25 12:11:53;;;;;;;15.48;10.77;;;19.40;76.90;;;;;;7276182;19;2004611;-72
2022/03/25 12:14:28;;;;;;;12.87;10.63;;;20.10;73.10;;;;;;7380533;19;22547;-71
2022/03/25 12:16:55;;;;;;;13.67;9.77;;;19.80;71.60;;;;;;7376136;19;20967;-72
2022/03/25 12:19:26;;;;;;;14.73;10.45;;;20.20;72.00;;;;;;7376207;19;20325;-72
2022/03/25 12:21:59;;;;;;;18.85;12.23;;;20.40;69.60;;;;;;7373831;19;20316;-72
2022/03/25 12:24:25;;;;;;;14.15;11.50;;;19.70;69.60;;;;;;7376264;19;20380;-73
2022/03/25 12:27:02;;;;;;;12.77;10.48;;;19.90;69.60;;;;;;7374713;19;20374;-72
2022/03/25 12:29:31;;;;;;;16.23;11.18;;;19.20;68.10;;;;;;7372888;19;20413;-72
2022/03/25 12:32:01;;;;;;;14.43;10.37;;;19.60;71.20;;;;;;7369653;19;20341;-72
2022/03/25 12:34:41;;;;;;;15.98;11.63;;;20.20;73.00;;;;;;7374812;19;20375;-72
2022/03/25 12:37:10;;;;;;;14.32;10.23;;;20.40;70.80;;;;;;7375344;19;20321;-69
2022/03/25 12:39:36;;;;;;;13.38;9.93;;;21.00;70.00;;;;;;7376811;19;20373;-72
2022/03/25 12:42:10;;;;;;;14.70;9.40;;;21.70;69.40;;;;;;7375277;19;20786;-72
2022/03/25 12:44:35;;;;;;;17.17;11.37;;;22.80;68.70;;;;;;7376898;19;20332;-71
2022/03/25 12:47:02;;;;;;;13.43;9.10;;;22.30;63.50;;;;;;7378363;19;20338;-75
2022/03/25 12:49:28;;;;;;;14.05;10.25;;;22.00;62.00;;;;;;7383792;19;20877;-75